sensor_id;sensor_type;location;lat;lon;timestamp;P1;durP1;ratioP1;P2;durP2;ratioP2
47289;SDS011;33197;52.524;13.444;2023-02-18T00:01:25;17.13;;;4.07;;
47289;SDS011;33197;52.524;13.444;2023-02-18T00:03:53;28.92;;;5.72;;
47289;SDS011;33197;52.524;13.444;2023-02-18T00:06:25;19.05;;;3.83;;
47289;SDS011;33197;52.524;13.444;2023-02-18T00:08:55;20.33;;;4.10;;
47289;SDS011;33197;52.524;13.444;2023-02-18T00:11:24;19.33;;;4.20;;
47289;SDS011;33197;52.524;13.444;2023-02-18T00:13:53;24.60;;;4.22;;
47289;SDS011;33197;52.524;13.444;2023-02-18T00:16:22;17.10;;;3.88;;
47289;SDS011;33197;52.524;13.444;2023-02-18T00:18:55;24.52;;;3.30;;
47289;SDS011;33197;52.524;13.444;2023-02-18T00:21:23;20.88;;;3.15;;
47289;SDS011;33197;52.524;13.444;2023-02-18T00:23:51;17.35;;;3.30;;
47289;SDS011;33197;52.524;13.444;2023-02-18T00:26:18;17.25;;;3.83;;
47289;SDS011;33197;52.524;13.444;2023-02-18T00:28:46;18.45;;;3.90;;
47289;SDS011;33197;52.524;13.444;2023-02-18T00:31:24;18.92;;;3.95;;
47289;SDS011;33197;52.524;13.444;2023-02-18T00:36:23;19.02;;;3.53;;
47289;SDS011;33197;52.524;13.444;2023-02-18T00:38:53;18.20;;;3.10;;
47289;SDS011;33197;52.524;13.444;2023-02-18T00:41:22;18.40;;;4.10;;
47289;SDS011;33197;52.524;13.444;2023-02-18T00:43:51;16.65;;;3.45;;
47289;SDS011;33197;52.524;13.444;2023-02-18T00:46:18;17.08;;;4.00;;
47289;SDS011;33197;52.524;13.444;2023-02-18T00:48:46;21.95;;;3.65;;
47289;SDS011;33197;52.524;13.444;2023-02-18T00:51:13;16.08;;;3.22;;
47289;SDS011;33197;52.524;13.444;2023-02-18T00:53:41;19.50;;;3.88;;
47289;SDS011;33197;52.524;13.444;2023-02-18T00:56:08;22.00;;;4.50;;
47289;SDS011;33197;52.524;13.444;2023-02-18T00:58:36;17.80;;;3.13;;
47289;SDS011;33197;52.524;13.444;2023-02-18T01:01:04;21.08;;;3.28;;
47289;SDS011;33197;52.524;13.444;2023-02-18T01:03:34;16.48;;;3.40;;
47289;SDS011;33197;52.524;13.444;2023-02-18T01:06:02;24.33;;;4.15;;
47289;SDS011;33197;52.524;13.444;2023-02-18T01:08:30;15.95;;;4.18;;
47289;SDS011;33197;52.524;13.444;2023-02-18T01:10:58;15.48;;;3.58;;
47289;SDS011;33197;52.524;13.444;2023-02-18T01:13:26;24.83;;;4.85;;
47289;SDS011;33197;52.524;13.444;2023-02-18T01:15:54;19.40;;;3.60;;
47289;SDS011;33197;52.524;13.444;2023-02-18T01:18:21;18.75;;;4.03;;
47289;SDS011;33197;52.524;13.444;2023-02-18T01:20:50;25.25;;;4.80;;
47289;SDS011;33197;52.524;13.444;2023-02-18T01:23:17;23.00;;;4.75;;
47289;SDS011;33197;52.524;13.444;2023-02-18T01:25:44;16.63;;;3.78;;
47289;SDS011;33197;52.524;13.444;2023-02-18T01:28:12;19.67;;;3.33;;
47289;SDS011;33197;52.524;13.444;2023-02-18T01:30:40;12.57;;;2.88;;
47289;SDS011;33197;52.524;13.444;2023-02-18T01:33:08;14.70;;;3.65;;
47289;SDS011;33197;52.524;13.444;2023-02-18T01:35:38;27.85;;;4.38;;
47289;SDS011;33197;52.524;13.444;2023-02-18T01:38:06;19.40;;;3.10;;
47289;SDS011;33197;52.524;13.444;2023-02-18T01:40:34;24.17;;;3.65;;
47289;SDS011;33197;52.524;13.444;2023-02-18T01:43:02;19.33;;;4.05;;
47289;SDS011;33197;52.524;13.444;2023-02-18T01:48:16;18.58;;;4.30;;
47289;SDS011;33197;52.524;13.444;2023-02-18T01:50:47;21.73;;;4.20;;
47289;SDS011;33197;52.524;13.444;2023-02-18T01:56:33;18.63;;;3.70;;
47289;SDS011;33197;52.524;13.444;2023-02-18T01:59:03;25.65;;;4.32;;
47289;SDS011;33197;52.524;13.444;2023-02-18T02:01:33;19.80;;;3.95;;
47289;SDS011;33197;52.524;13.444;2023-02-18T02:04:01;16.88;;;3.03;;
47289;SDS011;33197;52.524;13.444;2023-02-18T02:06:28;15.18;;;3.83;;
47289;SDS011;33197;52.524;13.444;2023-02-18T02:08:57;15.05;;;2.53;;
47289;SDS011;33197;52.524;13.444;2023-02-18T02:11:39;18.02;;;3.58;;
47289;SDS011;33197;52.524;13.444;2023-02-18T02:16:48;16.25;;;3.25;;
47289;SDS011;33197;52.524;13.444;2023-02-18T02:32:06;13.68;;;3.22;;
47289;SDS011;33197;52.524;13.444;2023-02-18T02:36:58;23.30;;;3.65;;
47289;SDS011;33197;52.524;13.444;2023-02-18T02:42:16;17.20;;;3.38;;
47289;SDS011;33197;52.524;13.444;2023-02-18T02:45:14;19.23;;;3.90;;
47289;SDS011;33197;52.524;13.444;2023-02-18T02:48:05;26.40;;;3.83;;
47289;SDS011;33197;52.524;13.444;2023-02-18T02:50:46;19.05;;;3.05;;
47289;SDS011;33197;52.524;13.444;2023-02-18T02:53:29;18.20;;;3.30;;
47289;SDS011;33197;52.524;13.444;2023-02-18T02:55:57;18.33;;;3.60;;
47289;SDS011;33197;52.524;13.444;2023-02-18T02:58:24;19.02;;;3.67;;
47289;SDS011;33197;52.524;13.444;2023-02-18T03:09:27;19.95;;;3.28;;
47289;SDS011;33197;52.524;13.444;2023-02-18T03:12:11;13.75;;;3.38;;
47289;SDS011;33197;52.524;13.444;2023-02-18T03:15:04;18.17;;;3.13;;
47289;SDS011;33197;52.524;13.444;2023-02-18T03:17:45;24.05;;;3.83;;
47289;SDS011;33197;52.524;13.444;2023-02-18T03:20:26;21.00;;;4.18;;
47289;SDS011;33197;52.524;13.444;2023-02-18T03:22:55;15.98;;;3.25;;
47289;SDS011;33197;52.524;13.444;2023-02-18T03:25:24;19.73;;;3.35;;
47289;SDS011;33197;52.524;13.444;2023-02-18T03:27:52;17.60;;;3.40;;
47289;SDS011;33197;52.524;13.444;2023-02-18T03:33:03;17.92;;;2.67;;
47289;SDS011;33197;52.524;13.444;2023-02-18T03:35:32;14.98;;;2.60;;
47289;SDS011;33197;52.524;13.444;2023-02-18T03:40:40;19.33;;;3.88;;
47289;SDS011;33197;52.524;13.444;2023-02-18T03:43:07;15.65;;;2.20;;
47289;SDS011;33197;52.524;13.444;2023-02-18T03:45:35;10.60;;;2.30;;
47289;SDS011;33197;52.524;13.444;2023-02-18T03:48:02;14.27;;;2.72;;
47289;SDS011;33197;52.524;13.444;2023-02-18T03:50:30;18.23;;;3.78;;
47289;SDS011;33197;52.524;13.444;2023-02-18T03:52:57;20.88;;;2.58;;
47289;SDS011;33197;52.524;13.444;2023-02-18T03:55:24;16.77;;;2.88;;
47289;SDS011;33197;52.524;13.444;2023-02-18T03:57:51;13.00;;;3.38;;
47289;SDS011;33197;52.524;13.444;2023-02-18T04:00:19;17.42;;;2.72;;
47289;SDS011;33197;52.524;13.444;2023-02-18T04:02:47;14.48;;;2.22;;
47289;SDS011;33197;52.524;13.444;2023-02-18T04:05:14;11.38;;;2.47;;
47289;SDS011;33197;52.524;13.444;2023-02-18T04:07:41;20.77;;;2.97;;
47289;SDS011;33197;52.524;13.444;2023-02-18T04:10:09;16.33;;;3.15;;
47289;SDS011;33197;52.524;13.444;2023-02-18T04:12:36;7.22;;;2.00;;
47289;SDS011;33197;52.524;13.444;2023-02-18T04:15:04;11.88;;;3.05;;
47289;SDS011;33197;52.524;13.444;2023-02-18T04:17:32;13.98;;;2.42;;
47289;SDS011;33197;52.524;13.444;2023-02-18T04:20:00;20.63;;;2.50;;
47289;SDS011;33197;52.524;13.444;2023-02-18T04:22:27;17.23;;;2.67;;
47289;SDS011;33197;52.524;13.444;2023-02-18T04:24:54;9.98;;;2.25;;
47289;SDS011;33197;52.524;13.444;2023-02-18T04:27:22;12.07;;;2.65;;
47289;SDS011;33197;52.524;13.444;2023-02-18T04:29:49;16.98;;;2.35;;
47289;SDS011;33197;52.524;13.444;2023-02-18T04:32:16;11.52;;;2.50;;
47289;SDS011;33197;52.524;13.444;2023-02-18T04:34:44;7.90;;;1.90;;
47289;SDS011;33197;52.524;13.444;2023-02-18T04:37:11;17.30;;;3.42;;
47289;SDS011;33197;52.524;13.444;2023-02-18T04:39:38;16.10;;;2.78;;
47289;SDS011;33197;52.524;13.444;2023-02-18T04:42:05;11.90;;;2.08;;
47289;SDS011;33197;52.524;13.444;2023-02-18T04:44:35;14.27;;;2.45;;
47289;SDS011;33197;52.524;13.444;2023-02-18T04:47:04;14.38;;;2.85;;
47289;SDS011;33197;52.524;13.444;2023-02-18T04:49:31;14.80;;;2.80;;
47289;SDS011;33197;52.524;13.444;2023-02-18T04:51:59;17.45;;;2.10;;
47289;SDS011;33197;52.524;13.444;2023-02-18T04:54:26;8.25;;;2.25;;
47289;SDS011;33197;52.524;13.444;2023-02-18T04:56:53;9.32;;;2.00;;
47289;SDS011;33197;52.524;13.444;2023-02-18T04:59:21;19.48;;;3.40;;
47289;SDS011;33197;52.524;13.444;2023-02-18T05:01:48;16.38;;;2.80;;
47289;SDS011;33197;52.524;13.444;2023-02-18T05:04:15;8.38;;;2.15;;
47289;SDS011;33197;52.524;13.444;2023-02-18T05:06:45;12.63;;;2.42;;
47289;SDS011;33197;52.524;13.444;2023-02-18T05:09:13;13.73;;;3.35;;
47289;SDS011;33197;52.524;13.444;2023-02-18T05:11:40;19.00;;;3.17;;
47289;SDS011;33197;52.524;13.444;2023-02-18T05:14:08;17.05;;;3.53;;
47289;SDS011;33197;52.524;13.444;2023-02-18T05:16:35;12.48;;;2.88;;
47289;SDS011;33197;52.524;13.444;2023-02-18T05:19:02;14.13;;;2.97;;
47289;SDS011;33197;52.524;13.444;2023-02-18T05:21:30;14.45;;;2.90;;
47289;SDS011;33197;52.524;13.444;2023-02-18T05:23:57;16.98;;;3.50;;
47289;SDS011;33197;52.524;13.444;2023-02-18T05:26:24;10.88;;;2.00;;
47289;SDS011;33197;52.524;13.444;2023-02-18T05:28:52;9.88;;;2.15;;
47289;SDS011;33197;52.524;13.444;2023-02-18T05:31:19;13.73;;;2.60;;
47289;SDS011;33197;52.524;13.444;2023-02-18T05:33:46;14.45;;;2.40;;
47289;SDS011;33197;52.524;13.444;2023-02-18T05:36:14;13.65;;;2.13;;
47289;SDS011;33197;52.524;13.444;2023-02-18T05:38:41;10.68;;;1.88;;
47289;SDS011;33197;52.524;13.444;2023-02-18T05:41:08;5.47;;;1.70;;
47289;SDS011;33197;52.524;13.444;2023-02-18T05:43:35;12.25;;;2.45;;
47289;SDS011;33197;52.524;13.444;2023-02-18T05:46:23;14.68;;;2.20;;
47289;SDS011;33197;52.524;13.444;2023-02-18T05:48:50;20.80;;;3.40;;
47289;SDS011;33197;52.524;13.444;2023-02-18T05:51:17;12.77;;;2.22;;
47289;SDS011;33197;52.524;13.444;2023-02-18T05:53:46;14.68;;;2.00;;
47289;SDS011;33197;52.524;13.444;2023-02-18T05:56:13;13.63;;;2.15;;
47289;SDS011;33197;52.524;13.444;2023-02-18T05:58:40;13.13;;;2.22;;
47289;SDS011;33197;52.524;13.444;2023-02-18T06:01:07;15.15;;;2.03;;
47289;SDS011;33197;52.524;13.444;2023-02-18T06:03:35;11.27;;;2.15;;
47289;SDS011;33197;52.524;13.444;2023-02-18T06:06:02;17.13;;;2.28;;
47289;SDS011;33197;52.524;13.444;2023-02-18T06:08:29;13.35;;;2.25;;
47289;SDS011;33197;52.524;13.444;2023-02-18T06:10:57;14.07;;;2.25;;
47289;SDS011;33197;52.524;13.444;2023-02-18T06:13:24;9.27;;;2.42;;
47289;SDS011;33197;52.524;13.444;2023-02-18T06:15:51;7.20;;;2.10;;
47289;SDS011;33197;52.524;13.444;2023-02-18T06:18:20;14.27;;;2.00;;
47289;SDS011;33197;52.524;13.444;2023-02-18T06:20:48;9.25;;;2.10;;
47289;SDS011;33197;52.524;13.444;2023-02-18T06:23:15;9.98;;;2.08;;
47289;SDS011;33197;52.524;13.444;2023-02-18T06:25:42;12.27;;;2.20;;
47289;SDS011;33197;52.524;13.444;2023-02-18T06:28:10;11.57;;;1.90;;
47289;SDS011;33197;52.524;13.444;2023-02-18T06:30:37;12.90;;;2.58;;
47289;SDS011;33197;52.524;13.444;2023-02-18T06:33:04;14.40;;;2.35;;
47289;SDS011;33197;52.524;13.444;2023-02-18T06:35:32;10.07;;;2.50;;
47289;SDS011;33197;52.524;13.444;2023-02-18T06:37:59;8.05;;;1.75;;
47289;SDS011;33197;52.524;13.444;2023-02-18T06:40:27;10.05;;;2.03;;
47289;SDS011;33197;52.524;13.444;2023-02-18T06:42:54;8.77;;;2.15;;
47289;SDS011;33197;52.524;13.444;2023-02-18T06:45:21;12.68;;;2.58;;
47289;SDS011;33197;52.524;13.444;2023-02-18T06:47:49;12.15;;;1.63;;
47289;SDS011;33197;52.524;13.444;2023-02-18T06:50:16;11.15;;;2.40;;
47289;SDS011;33197;52.524;13.444;2023-02-18T06:52:45;8.93;;;1.77;;
47289;SDS011;33197;52.524;13.444;2023-02-18T06:55:12;9.02;;;2.50;;
47289;SDS011;33197;52.524;13.444;2023-02-18T06:57:39;11.82;;;2.10;;
47289;SDS011;33197;52.524;13.444;2023-02-18T07:00:09;11.30;;;1.55;;
47289;SDS011;33197;52.524;13.444;2023-02-18T07:02:36;10.63;;;1.88;;
47289;SDS011;33197;52.524;13.444;2023-02-18T07:05:04;7.63;;;2.33;;
47289;SDS011;33197;52.524;13.444;2023-02-18T07:07:32;7.40;;;1.98;;
47289;SDS011;33197;52.524;13.444;2023-02-18T07:09:59;12.85;;;1.50;;
47289;SDS011;33197;52.524;13.444;2023-02-18T07:12:26;8.32;;;1.92;;
47289;SDS011;33197;52.524;13.444;2023-02-18T07:14:54;10.20;;;2.10;;
47289;SDS011;33197;52.524;13.444;2023-02-18T07:17:21;9.15;;;1.85;;
47289;SDS011;33197;52.524;13.444;2023-02-18T07:19:48;11.02;;;1.92;;
47289;SDS011;33197;52.524;13.444;2023-02-18T07:22:16;11.60;;;2.22;;
47289;SDS011;33197;52.524;13.444;2023-02-18T07:24:43;11.80;;;1.75;;
47289;SDS011;33197;52.524;13.444;2023-02-18T07:27:10;6.82;;;1.50;;
47289;SDS011;33197;52.524;13.444;2023-02-18T07:29:38;7.65;;;1.63;;
47289;SDS011;33197;52.524;13.444;2023-02-18T07:32:05;9.38;;;1.90;;
47289;SDS011;33197;52.524;13.444;2023-02-18T07:34:32;3.20;;;0.82;;
47289;SDS011;33197;52.524;13.444;2023-02-18T07:37:00;9.20;;;1.80;;
47289;SDS011;33197;52.524;13.444;2023-02-18T07:39:27;6.65;;;1.90;;
47289;SDS011;33197;52.524;13.444;2023-02-18T07:41:54;6.13;;;1.67;;
47289;SDS011;33197;52.524;13.444;2023-02-18T07:44:21;8.45;;;1.70;;
47289;SDS011;33197;52.524;13.444;2023-02-18T07:46:49;9.18;;;1.75;;
47289;SDS011;33197;52.524;13.444;2023-02-18T07:49:16;12.00;;;1.95;;
47289;SDS011;33197;52.524;13.444;2023-02-18T07:51:45;5.35;;;1.65;;
47289;SDS011;33197;52.524;13.444;2023-02-18T07:54:13;9.75;;;1.90;;
47289;SDS011;33197;52.524;13.444;2023-02-18T07:56:40;12.68;;;1.95;;
47289;SDS011;33197;52.524;13.444;2023-02-18T07:59:09;7.88;;;1.52;;
47289;SDS011;33197;52.524;13.444;2023-02-18T08:01:36;4.10;;;1.63;;
47289;SDS011;33197;52.524;13.444;2023-02-18T08:04:04;6.03;;;1.60;;
47289;SDS011;33197;52.524;13.444;2023-02-18T08:06:37;6.50;;;1.52;;
47289;SDS011;33197;52.524;13.444;2023-02-18T08:09:06;7.65;;;1.55;;
47289;SDS011;33197;52.524;13.444;2023-02-18T08:11:34;9.85;;;1.77;;
47289;SDS011;33197;52.524;13.444;2023-02-18T08:14:01;9.20;;;2.10;;
47289;SDS011;33197;52.524;13.444;2023-02-18T08:16:29;8.77;;;1.70;;
47289;SDS011;33197;52.524;13.444;2023-02-18T08:18:56;4.35;;;1.88;;
47289;SDS011;33197;52.524;13.444;2023-02-18T08:21:24;7.13;;;1.50;;
47289;SDS011;33197;52.524;13.444;2023-02-18T08:23:52;6.78;;;1.55;;
47289;SDS011;33197;52.524;13.444;2023-02-18T08:26:19;7.82;;;1.63;;
47289;SDS011;33197;52.524;13.444;2023-02-18T08:28:47;10.38;;;1.50;;
47289;SDS011;33197;52.524;13.444;2023-02-18T08:31:18;11.27;;;1.90;;
47289;SDS011;33197;52.524;13.444;2023-02-18T08:33:48;7.35;;;1.13;;
47289;SDS011;33197;52.524;13.444;2023-02-18T08:36:15;2.90;;;1.08;;
47289;SDS011;33197;52.524;13.444;2023-02-18T08:38:42;7.20;;;1.80;;
47289;SDS011;33197;52.524;13.444;2023-02-18T08:41:10;8.02;;;1.60;;
47289;SDS011;33197;52.524;13.444;2023-02-18T08:43:37;7.70;;;2.05;;
47289;SDS011;33197;52.524;13.444;2023-02-18T08:46:05;6.00;;;1.17;;
47289;SDS011;33197;52.524;13.444;2023-02-18T08:48:32;10.63;;;1.58;;
47289;SDS011;33197;52.524;13.444;2023-02-18T08:51:08;5.05;;;1.38;;
47289;SDS011;33197;52.524;13.444;2023-02-18T08:53:39;7.57;;;2.05;;
47289;SDS011;33197;52.524;13.444;2023-02-18T08:56:07;9.90;;;1.48;;
47289;SDS011;33197;52.524;13.444;2023-02-18T08:58:35;9.02;;;1.92;;
47289;SDS011;33197;52.524;13.444;2023-02-18T09:01:04;7.15;;;1.45;;
47289;SDS011;33197;52.524;13.444;2023-02-18T09:03:33;5.70;;;1.63;;
47289;SDS011;33197;52.524;13.444;2023-02-18T09:06:01;7.20;;;1.50;;
47289;SDS011;33197;52.524;13.444;2023-02-18T09:08:28;12.32;;;1.70;;
47289;SDS011;33197;52.524;13.444;2023-02-18T09:10:56;4.18;;;1.27;;
47289;SDS011;33197;52.524;13.444;2023-02-18T09:13:24;8.35;;;2.05;;
47289;SDS011;33197;52.524;13.444;2023-02-18T09:15:57;6.18;;;1.55;;
47289;SDS011;33197;52.524;13.444;2023-02-18T09:18:29;7.35;;;1.60;;
47289;SDS011;33197;52.524;13.444;2023-02-18T09:20:58;9.85;;;1.80;;
47289;SDS011;33197;52.524;13.444;2023-02-18T09:23:27;7.03;;;1.52;;
47289;SDS011;33197;52.524;13.444;2023-02-18T09:25:55;3.08;;;1.20;;
47289;SDS011;33197;52.524;13.444;2023-02-18T09:28:23;10.38;;;1.90;;
47289;SDS011;33197;52.524;13.444;2023-02-18T09:30:50;13.82;;;2.00;;
47289;SDS011;33197;52.524;13.444;2023-02-18T09:33:18;11.20;;;2.50;;
47289;SDS011;33197;52.524;13.444;2023-02-18T09:35:46;8.52;;;1.85;;
47289;SDS011;33197;52.524;13.444;2023-02-18T09:38:14;7.47;;;2.20;;
47289;SDS011;33197;52.524;13.444;2023-02-18T09:40:44;11.65;;;2.85;;
47289;SDS011;33197;52.524;13.444;2023-02-18T09:43:31;10.10;;;2.67;;
47289;SDS011;33197;52.524;13.444;2023-02-18T09:46:00;15.93;;;3.15;;
47289;SDS011;33197;52.524;13.444;2023-02-18T09:48:33;10.98;;;2.35;;
47289;SDS011;33197;52.524;13.444;2023-02-18T09:51:02;8.95;;;2.55;;
47289;SDS011;33197;52.524;13.444;2023-02-18T09:53:29;10.38;;;2.47;;
47289;SDS011;33197;52.524;13.444;2023-02-18T09:55:56;14.50;;;2.72;;
47289;SDS011;33197;52.524;13.444;2023-02-18T09:58:29;14.77;;;3.05;;
47289;SDS011;33197;52.524;13.444;2023-02-18T10:01:21;10.20;;;2.65;;
47289;SDS011;33197;52.524;13.444;2023-02-18T10:03:49;8.93;;;3.22;;
47289;SDS011;33197;52.524;13.444;2023-02-18T10:06:24;14.40;;;3.03;;
47289;SDS011;33197;52.524;13.444;2023-02-18T10:08:52;10.82;;;2.85;;
47289;SDS011;33197;52.524;13.444;2023-02-18T10:11:27;10.57;;;2.75;;
47289;SDS011;33197;52.524;13.444;2023-02-18T10:14:01;10.63;;;2.90;;
47289;SDS011;33197;52.524;13.444;2023-02-18T10:16:29;7.85;;;2.50;;
47289;SDS011;33197;52.524;13.444;2023-02-18T10:18:58;9.90;;;2.80;;
47289;SDS011;33197;52.524;13.444;2023-02-18T10:21:28;9.95;;;2.72;;
47289;SDS011;33197;52.524;13.444;2023-02-18T10:26:33;14.38;;;3.10;;
47289;SDS011;33197;52.524;13.444;2023-02-18T10:29:02;15.48;;;3.45;;
47289;SDS011;33197;52.524;13.444;2023-02-18T10:31:30;10.82;;;2.40;;
47289;SDS011;33197;52.524;13.444;2023-02-18T10:36:55;9.15;;;3.35;;
47289;SDS011;33197;52.524;13.444;2023-02-18T10:47:35;11.98;;;3.58;;
47289;SDS011;33197;52.524;13.444;2023-02-18T10:50:23;10.63;;;2.75;;
47289;SDS011;33197;52.524;13.444;2023-02-18T10:52:56;14.25;;;3.20;;
47289;SDS011;33197;52.524;13.444;2023-02-18T10:55:40;11.68;;;2.85;;
47289;SDS011;33197;52.524;13.444;2023-02-18T11:01:18;10.32;;;2.80;;
47289;SDS011;33197;52.524;13.444;2023-02-18T11:03:47;9.23;;;2.53;;
47289;SDS011;33197;52.524;13.444;2023-02-18T11:06:26;14.82;;;2.63;;
47289;SDS011;33197;52.524;13.444;2023-02-18T11:08:57;11.23;;;3.00;;
47289;SDS011;33197;52.524;13.444;2023-02-18T11:11:29;6.82;;;2.78;;
47289;SDS011;33197;52.524;13.444;2023-02-18T11:13:59;11.15;;;2.45;;
47289;SDS011;33197;52.524;13.444;2023-02-18T11:16:40;7.75;;;2.17;;
47289;SDS011;33197;52.524;13.444;2023-02-18T11:22:07;8.50;;;3.00;;
47289;SDS011;33197;52.524;13.444;2023-02-18T11:24:39;10.55;;;2.42;;
47289;SDS011;33197;52.524;13.444;2023-02-18T11:27:08;7.35;;;2.25;;
47289;SDS011;33197;52.524;13.444;2023-02-18T11:29:39;6.75;;;2.30;;
47289;SDS011;33197;52.524;13.444;2023-02-18T11:32:06;6.85;;;2.85;;
47289;SDS011;33197;52.524;13.444;2023-02-18T11:34:37;7.38;;;2.80;;
47289;SDS011;33197;52.524;13.444;2023-02-18T11:37:09;9.15;;;2.97;;
47289;SDS011;33197;52.524;13.444;2023-02-18T11:39:42;5.70;;;1.80;;
47289;SDS011;33197;52.524;13.444;2023-02-18T11:42:14;5.65;;;2.10;;
47289;SDS011;33197;52.524;13.444;2023-02-18T11:44:56;12.90;;;3.35;;
47289;SDS011;33197;52.524;13.444;2023-02-18T11:47:32;6.80;;;2.55;;
47289;SDS011;33197;52.524;13.444;2023-02-18T11:55:06;4.18;;;2.47;;
47289;SDS011;33197;52.524;13.444;2023-02-18T11:57:38;4.68;;;2.00;;
47289;SDS011;33197;52.524;13.444;2023-02-18T12:00:16;4.78;;;2.13;;
47289;SDS011;33197;52.524;13.444;2023-02-18T12:02:50;7.75;;;2.45;;
47289;SDS011;33197;52.524;13.444;2023-02-18T12:10:41;3.97;;;2.40;;
47289;SDS011;33197;52.524;13.444;2023-02-18T12:13:27;6.07;;;2.05;;
47289;SDS011;33197;52.524;13.444;2023-02-18T12:27:18;3.10;;;2.22;;
47289;SDS011;33197;52.524;13.444;2023-02-18T12:40:58;4.60;;;2.92;;
47289;SDS011;33197;52.524;13.444;2023-02-18T12:49:25;3.72;;;2.95;;
47289;SDS011;33197;52.524;13.444;2023-02-18T13:06:00;4.88;;;3.50;;
47289;SDS011;33197;52.524;13.444;2023-02-18T13:11:34;5.07;;;3.88;;
47289;SDS011;33197;52.524;13.444;2023-02-18T13:14:26;5.05;;;3.42;;
47289;SDS011;33197;52.524;13.444;2023-02-18T13:23:02;4.60;;;2.83;;
47289;SDS011;33197;52.524;13.444;2023-02-18T13:25:34;3.40;;;3.10;;
47289;SDS011;33197;52.524;13.444;2023-02-18T13:30:46;3.53;;;2.65;;
47289;SDS011;33197;52.524;13.444;2023-02-18T13:33:28;2.65;;;2.33;;
47289;SDS011;33197;52.524;13.444;2023-02-18T13:36:08;4.15;;;2.05;;
47289;SDS011;33197;52.524;13.444;2023-02-18T13:41:35;2.78;;;1.85;;
47289;SDS011;33197;52.524;13.444;2023-02-18T13:44:38;4.32;;;1.90;;
47289;SDS011;33197;52.524;13.444;2023-02-18T13:46:55;2.40;;;2.00;;
47289;SDS011;33197;52.524;13.444;2023-02-18T13:49:25;4.63;;;2.30;;
47289;SDS011;33197;52.524;13.444;2023-02-18T13:52:00;2.25;;;1.80;;
47289;SDS011;33197;52.524;13.444;2023-02-18T13:54:30;1.20;;;1.10;;
47289;SDS011;33197;52.524;13.444;2023-02-18T13:57:11;1.70;;;1.17;;
47289;SDS011;33197;52.524;13.444;2023-02-18T13:59:43;1.50;;;1.27;;
47289;SDS011;33197;52.524;13.444;2023-02-18T14:04:54;3.20;;;1.38;;
47289;SDS011;33197;52.524;13.444;2023-02-18T14:20:30;1.63;;;1.30;;
47289;SDS011;33197;52.524;13.444;2023-02-18T14:25:49;1.85;;;1.40;;
47289;SDS011;33197;52.524;13.444;2023-02-18T14:28:38;2.28;;;1.30;;
47289;SDS011;33197;52.524;13.444;2023-02-18T14:33:40;1.20;;;1.00;;
47289;SDS011;33197;52.524;13.444;2023-02-18T14:39:02;2.00;;;1.42;;
47289;SDS011;33197;52.524;13.444;2023-02-18T14:42:02;3.90;;;1.25;;
47289;SDS011;33197;52.524;13.444;2023-02-18T14:47:16;2.17;;;1.58;;
47289;SDS011;33197;52.524;13.444;2023-02-18T14:49:54;1.25;;;1.00;;
47289;SDS011;33197;52.524;13.444;2023-02-18T14:54:57;2.45;;;1.40;;
47289;SDS011;33197;52.524;13.444;2023-02-18T14:57:30;1.77;;;1.20;;
47289;SDS011;33197;52.524;13.444;2023-02-18T15:00:02;1.65;;;1.55;;
47289;SDS011;33197;52.524;13.444;2023-02-18T15:02:33;2.22;;;1.58;;
47289;SDS011;33197;52.524;13.444;2023-02-18T15:05:16;2.10;;;1.23;;
47289;SDS011;33197;52.524;13.444;2023-02-18T15:07:56;1.85;;;1.30;;
47289;SDS011;33197;52.524;13.444;2023-02-18T15:10:39;6.35;;;1.60;;
47289;SDS011;33197;52.524;13.444;2023-02-18T15:13:21;4.18;;;1.40;;
47289;SDS011;33197;52.524;13.444;2023-02-18T15:15:53;3.97;;;1.42;;
47289;SDS011;33197;52.524;13.444;2023-02-18T15:21:06;2.00;;;1.38;;
47289;SDS011;33197;52.524;13.444;2023-02-18T15:23:46;1.88;;;1.13;;
47289;SDS011;33197;52.524;13.444;2023-02-18T15:26:14;1.98;;;1.30;;
47289;SDS011;33197;52.524;13.444;2023-02-18T15:29:43;1.90;;;1.10;;
47289;SDS011;33197;52.524;13.444;2023-02-18T15:31:46;1.15;;;0.98;;
47289;SDS011;33197;52.524;13.444;2023-02-18T15:34:35;1.17;;;1.05;;
47289;SDS011;33197;52.524;13.444;2023-02-18T15:37:04;3.38;;;1.40;;
47289;SDS011;33197;52.524;13.444;2023-02-18T15:39:33;1.55;;;0.93;;
47289;SDS011;33197;52.524;13.444;2023-02-18T15:44:54;1.60;;;1.13;;
47289;SDS011;33197;52.524;13.444;2023-02-18T15:47:23;1.40;;;0.60;;
47289;SDS011;33197;52.524;13.444;2023-02-18T15:49:52;1.08;;;0.50;;
47289;SDS011;33197;52.524;13.444;2023-02-18T15:52:28;1.25;;;0.88;;
47289;SDS011;33197;52.524;13.444;2023-02-18T15:55:41;0.68;;;0.50;;
47289;SDS011;33197;52.524;13.444;2023-02-18T15:58:21;1.45;;;0.60;;
47289;SDS011;33197;52.524;13.444;2023-02-18T16:01:00;1.23;;;0.60;;
47289;SDS011;33197;52.524;13.444;2023-02-18T16:06:15;0.73;;;0.57;;
47289;SDS011;33197;52.524;13.444;2023-02-18T16:08:58;1.92;;;0.90;;
47289;SDS011;33197;52.524;13.444;2023-02-18T16:11:29;0.95;;;0.57;;
47289;SDS011;33197;52.524;13.444;2023-02-18T16:13:58;0.65;;;0.40;;
47289;SDS011;33197;52.524;13.444;2023-02-18T16:16:30;1.58;;;0.70;;
47289;SDS011;33197;52.524;13.444;2023-02-18T16:19:01;1.98;;;0.55;;
47289;SDS011;33197;52.524;13.444;2023-02-18T16:21:39;1.30;;;0.73;;
47289;SDS011;33197;52.524;13.444;2023-02-18T16:24:24;4.03;;;0.80;;
47289;SDS011;33197;52.524;13.444;2023-02-18T16:26:55;0.70;;;0.50;;
47289;SDS011;33197;52.524;13.444;2023-02-18T16:29:24;0.60;;;0.60;;
47289;SDS011;33197;52.524;13.444;2023-02-18T16:32:07;3.42;;;0.60;;
47289;SDS011;33197;52.524;13.444;2023-02-18T16:34:36;1.75;;;0.73;;
47289;SDS011;33197;52.524;13.444;2023-02-18T16:37:04;1.60;;;0.90;;
47289;SDS011;33197;52.524;13.444;2023-02-18T16:42:20;2.60;;;1.10;;
47289;SDS011;33197;52.524;13.444;2023-02-18T16:44:54;2.53;;;0.82;;
47289;SDS011;33197;52.524;13.444;2023-02-18T16:47:21;3.03;;;1.00;;
47289;SDS011;33197;52.524;13.444;2023-02-18T16:49:49;1.25;;;0.88;;
47289;SDS011;33197;52.524;13.444;2023-02-18T16:52:17;1.83;;;0.85;;
47289;SDS011;33197;52.524;13.444;2023-02-18T16:54:45;1.90;;;1.27;;
47289;SDS011;33197;52.524;13.444;2023-02-18T16:57:16;1.73;;;0.93;;
47289;SDS011;33197;52.524;13.444;2023-02-18T16:59:44;3.63;;;1.13;;
47289;SDS011;33197;52.524;13.444;2023-02-18T17:02:14;1.45;;;1.05;;
47289;SDS011;33197;52.524;13.444;2023-02-18T17:04:45;1.65;;;1.10;;
47289;SDS011;33197;52.524;13.444;2023-02-18T17:07:14;1.55;;;0.90;;
47289;SDS011;33197;52.524;13.444;2023-02-18T17:09:44;2.30;;;1.17;;
47289;SDS011;33197;52.524;13.444;2023-02-18T17:12:11;1.85;;;1.40;;
47289;SDS011;33197;52.524;13.444;2023-02-18T17:14:39;2.25;;;1.25;;
47289;SDS011;33197;52.524;13.444;2023-02-18T17:17:10;1.27;;;0.90;;
47289;SDS011;33197;52.524;13.444;2023-02-18T17:19:39;2.38;;;1.40;;
47289;SDS011;33197;52.524;13.444;2023-02-18T17:22:13;1.20;;;1.00;;
47289;SDS011;33197;52.524;13.444;2023-02-18T17:24:44;1.48;;;1.00;;
47289;SDS011;33197;52.524;13.444;2023-02-18T17:27:11;1.90;;;0.90;;
47289;SDS011;33197;52.524;13.444;2023-02-18T17:29:39;1.33;;;0.82;;
47289;SDS011;33197;52.524;13.444;2023-02-18T17:32:10;1.60;;;1.00;;
47289;SDS011;33197;52.524;13.444;2023-02-18T17:34:38;1.40;;;0.80;;
47289;SDS011;33197;52.524;13.444;2023-02-18T17:37:16;1.88;;;1.40;;
47289;SDS011;33197;52.524;13.444;2023-02-18T17:40:36;1.50;;;0.90;;